SHHS weather

Hospital del Salvador Heliport
Santiago, Santiago Metropolitan Region, Chile

Public forecast

Using degrees Celsius for public forecast. Weather courtesy of forecast.io.

METAR (pilot weather report)

Report is more than 6 hours old.

Closest report is Eulogio Sánchez Airport, 3.9 nm (7.3 km) ESE. Retrieved 2019/07/18 22:00 UTC (14 hours ago):

SCTB 182200Z 24002KT CAVOK 16/03 Q1022

TAF (pilot weather forecast)

Closest forecast is Comodoro Arturo Merino Benítez International Airport, 8.6 nm (16.0 km) WNW. Retrieved 2019/07/19 06:00 UTC (6 hours ago):

TAF SCEL 190429Z 1906/2006 16004KT 6000 NSC TX19/1919Z TN02/1910Z TEMPO 1910/1914 02004KT 4000 HZ BECMG 1915/1917 18005KT BECMG 1918/1920 21008KT 8000 BECMG 2000/2002 16004KT SCT180 BKN210 BECMG 2004/2006 6000